• pl
  • eng

Awiacja
Komunikaty METAR z lotnisk wojskowych. 06:01 24.01.2018

METAR EPCE 240500Z 19010KT 160V230 4300 BR OVC006 01/M00
Q1014 REFZDZ RMK 007 093 8/8 =

METAR EPDA 240500Z 21014KT 3300 -RA BR OVC006 03/02
Q1014 RMK 029 096 8/8 =

METAR EPDE 240500Z 15008KT 7000 OVC030 M04/M06 Q1026 RMK M041 085
8/8=

METAR EPIR 240500Z 16014KT 2000 -FZRA BR BKN040 00/M01 Q1019 RMK 003
093 7/7 =

METAR EPKS 240500Z 20008KT 5000 BR SCT008 BKN012 02/M00 Q1019 RMK 022
085 7/4=

METAR EPLK 240500Z 14007KT 3000 BR BKN110 M02/M03 Q1023 RMK M021 095
7/7=

METAR EPLY 240500Z 18010KT 5000 BR NSC M00/M02 Q1023 RMK M005 091
7/7=

METAR EPMB 240500Z 18014KT 3000 -SN BR SCT011 SCT024 BKN050 M00/M02
Q1018 RMK M005 088 7/4=

METAR EPMI 240500Z 20008KT 2000 -DZ BR BKN002 OVC010 01/01 Q1016 RMK
013 095 8/6 =

METAR EPMM 240500Z 16008KT 6000 SCT015 BKN025 M04/M06 Q1025 RMK M044
090 7/3=

METAR EPNA 240500Z NIL=

METAR EPOK 240500Z 18016KT 4300 BR SCT009 BKN010 OVC035 00/M01
Q1014 RMK 004 091 8/3 =

METAR EPPR 240500Z 16008KT 3000 BR OVC008 M01/M02 Q1017 RMK M009 093
8/8=

METAR EPPW 240500Z 16008KT 4000 BR BKN033 BKN080 01/00 Q1020 RMK 010
094 7/5=

METAR EPSN 240500Z 19008KT 4000 BR BKN003 OVC010 03/02 Q1015 RMK 025
097 8/6=

METAR EPTM 240500Z 16006KT 3000 BR SCT020 BKN100 M03/M05 Q1024 RMK
M034 091 6/3=
 METAR EPIR
Lokalizacja:EPIR Inowrocław
Czas:05:00 UTC
Średni kierunek wiatru:160 °
Średnia prędkość wiatru:14 węzłów
Widzialność:2000 metrów
Opad:marznący deszcz
Intensywność:słaba
 Zjawisko:zamglenie
Pierwsza warstwa chmur:5/8 do 7/8, wysokość podstawy 4000 FT
Temperatura powietrza:0 °C
Temperatura punktu rosy:-1 °C
Ciśnienie QNH:1019 hPa
Dokładna temperatura powietrza:,3 °C
Dokładna wilgotność względna:93 %
Zachmurzenie przez wszystkie piętra chmur:7/8
Zachmurzenie przez chmury niskie:7/8
Awiacja.imgw.pl jest pogodowym serwisem informacyjnym
Instytutu Meteorologii i Gospodarki Wodnej Państwowego Instytutu Badawczego.
Copyright IMGW PIB 2009-2011© Wszelkie prawa zastrzeżone.